sensor_id;sensor_type;location;lat;lon;timestamp;temperature;humidity
52245;DHT22;55759;51.586;-1.758;2023-05-15T00:00:45;12.60;88.00
52245;DHT22;55759;51.586;-1.758;2023-05-15T00:03:10;12.60;88.30
52245;DHT22;55759;51.586;-1.758;2023-05-15T00:05:36;12.60;88.50
52245;DHT22;55759;51.586;-1.758;2023-05-15T00:08:02;12.60;88.70
52245;DHT22;55759;51.586;-1.758;2023-05-15T00:10:27;12.60;89.10
52245;DHT22;55759;51.586;-1.758;2023-05-15T00:13:08;12.60;89.20
52245;DHT22;55759;51.586;-1.758;2023-05-15T00:15:34;12.50;88.60
52245;DHT22;55759;51.586;-1.758;2023-05-15T00:18:20;12.50;88.40
52245;DHT22;55759;51.586;-1.758;2023-05-15T00:20:58;12.40;87.80
52245;DHT22;55759;51.586;-1.758;2023-05-15T00:23:23;12.30;88.00
52245;DHT22;55759;51.586;-1.758;2023-05-15T00:25:49;12.20;88.20
52245;DHT22;55759;51.586;-1.758;2023-05-15T00:28:17;12.10;87.70
52245;DHT22;55759;51.586;-1.758;2023-05-15T00:30:47;12.10;88.00
52245;DHT22;55759;51.586;-1.758;2023-05-15T00:33:13;12.10;88.30
52245;DHT22;55759;51.586;-1.758;2023-05-15T00:35:38;11.90;87.70
52245;DHT22;55759;51.586;-1.758;2023-05-15T00:38:04;11.90;88.10
52245;DHT22;55759;51.586;-1.758;2023-05-15T00:40:33;11.90;88.30
52245;DHT22;55759;51.586;-1.758;2023-05-15T00:43:00;11.80;88.10
52245;DHT22;55759;51.586;-1.758;2023-05-15T00:45:27;11.70;87.80
52245;DHT22;55759;51.586;-1.758;2023-05-15T00:48:07;11.70;88.20
52245;DHT22;55759;51.586;-1.758;2023-05-15T00:50:50;11.70;88.40
52245;DHT22;55759;51.586;-1.758;2023-05-15T00:53:19;11.60;87.80
52245;DHT22;55759;51.586;-1.758;2023-05-15T00:55:50;11.50;87.40
52245;DHT22;55759;51.586;-1.758;2023-05-15T00:58:26;11.50;87.30
52245;DHT22;55759;51.586;-1.758;2023-05-15T01:00:55;11.40;87.40
52245;DHT22;55759;51.586;-1.758;2023-05-15T01:03:30;11.40;86.20
52245;DHT22;55759;51.586;-1.758;2023-05-15T01:06:08;11.30;86.20
52245;DHT22;55759;51.586;-1.758;2023-05-15T01:08:46;11.30;86.90
52245;DHT22;55759;51.586;-1.758;2023-05-15T01:11:15;11.30;87.10
52245;DHT22;55759;51.586;-1.758;2023-05-15T01:13:56;11.20;85.70
52245;DHT22;55759;51.586;-1.758;2023-05-15T01:16:25;11.20;85.40
52245;DHT22;55759;51.586;-1.758;2023-05-15T01:18:53;11.20;84.60
52245;DHT22;55759;51.586;-1.758;2023-05-15T01:29:35;11.40;81.90
52245;DHT22;55759;51.586;-1.758;2023-05-15T01:32:03;11.50;83.50
52245;DHT22;55759;51.586;-1.758;2023-05-15T01:34:44;11.50;83.60
52245;DHT22;55759;51.586;-1.758;2023-05-15T01:37:11;11.50;82.60
52245;DHT22;55759;51.586;-1.758;2023-05-15T01:39:38;11.50;82.50
52245;DHT22;55759;51.586;-1.758;2023-05-15T01:42:07;11.60;81.70
52245;DHT22;55759;51.586;-1.758;2023-05-15T01:44:34;11.60;81.40
52245;DHT22;55759;51.586;-1.758;2023-05-15T01:47:03;11.50;81.50
52245;DHT22;55759;51.586;-1.758;2023-05-15T01:49:30;11.60;82.40
52245;DHT22;55759;51.586;-1.758;2023-05-15T01:52:13;11.60;81.90
52245;DHT22;55759;51.586;-1.758;2023-05-15T01:54:40;11.60;81.30
52245;DHT22;55759;51.586;-1.758;2023-05-15T01:57:06;11.60;81.60
52245;DHT22;55759;51.586;-1.758;2023-05-15T01:59:33;11.60;81.50
52245;DHT22;55759;51.586;-1.758;2023-05-15T02:02:00;11.50;82.10
52245;DHT22;55759;51.586;-1.758;2023-05-15T02:04:26;11.50;82.30
52245;DHT22;55759;51.586;-1.758;2023-05-15T02:06:52;11.50;82.30
52245;DHT22;55759;51.586;-1.758;2023-05-15T02:09:18;11.50;81.40
52245;DHT22;55759;51.586;-1.758;2023-05-15T02:11:44;11.50;82.20
52245;DHT22;55759;51.586;-1.758;2023-05-15T02:14:10;11.40;82.40
52245;DHT22;55759;51.586;-1.758;2023-05-15T02:16:36;11.40;82.30
52245;DHT22;55759;51.586;-1.758;2023-05-15T02:19:02;11.30;81.80
52245;DHT22;55759;51.586;-1.758;2023-05-15T02:21:28;11.30;82.00
52245;DHT22;55759;51.586;-1.758;2023-05-15T02:23:54;11.20;81.80
52245;DHT22;55759;51.586;-1.758;2023-05-15T02:31:20;11.10;82.00
52245;DHT22;55759;51.586;-1.758;2023-05-15T02:33:54;11.10;81.40
52245;DHT22;55759;51.586;-1.758;2023-05-15T02:36:25;11.00;81.60
52245;DHT22;55759;51.586;-1.758;2023-05-15T02:38:52;11.00;81.70
52245;DHT22;55759;51.586;-1.758;2023-05-15T02:41:19;10.90;80.70
52245;DHT22;55759;51.586;-1.758;2023-05-15T02:43:46;10.90;80.80
52245;DHT22;55759;51.586;-1.758;2023-05-15T02:46:13;10.80;81.10
52245;DHT22;55759;51.586;-1.758;2023-05-15T02:48:42;10.80;80.40
52245;DHT22;55759;51.586;-1.758;2023-05-15T02:51:09;10.80;80.40
52245;DHT22;55759;51.586;-1.758;2023-05-15T02:53:38;10.70;80.70
52245;DHT22;55759;51.586;-1.758;2023-05-15T02:56:04;10.70;80.90
52245;DHT22;55759;51.586;-1.758;2023-05-15T02:58:30;10.60;80.70
52245;DHT22;55759;51.586;-1.758;2023-05-15T03:00:56;10.60;80.50
52245;DHT22;55759;51.586;-1.758;2023-05-15T03:03:21;10.60;80.40
52245;DHT22;55759;51.586;-1.758;2023-05-15T03:05:47;10.50;81.40
52245;DHT22;55759;51.586;-1.758;2023-05-15T03:08:13;10.40;81.90
52245;DHT22;55759;51.586;-1.758;2023-05-15T03:10:39;10.40;81.00
52245;DHT22;55759;51.586;-1.758;2023-05-15T03:13:04;10.40;81.20
52245;DHT22;55759;51.586;-1.758;2023-05-15T03:15:30;10.30;81.50
52245;DHT22;55759;51.586;-1.758;2023-05-15T03:17:56;10.30;81.20
52245;DHT22;55759;51.586;-1.758;2023-05-15T03:20:21;10.20;82.00
52245;DHT22;55759;51.586;-1.758;2023-05-15T03:22:47;10.20;81.40
52245;DHT22;55759;51.586;-1.758;2023-05-15T03:25:13;10.20;82.10
52245;DHT22;55759;51.586;-1.758;2023-05-15T03:27:38;10.20;81.60
52245;DHT22;55759;51.586;-1.758;2023-05-15T03:30:04;10.20;81.30
52245;DHT22;55759;51.586;-1.758;2023-05-15T03:32:30;10.10;81.60
52245;DHT22;55759;51.586;-1.758;2023-05-15T03:34:55;10.10;82.30
52245;DHT22;55759;51.586;-1.758;2023-05-15T03:37:21;10.00;82.30
52245;DHT22;55759;51.586;-1.758;2023-05-15T03:39:46;10.00;81.80
52245;DHT22;55759;51.586;-1.758;2023-05-15T03:42:12;9.90;82.10
52245;DHT22;55759;51.586;-1.758;2023-05-15T03:44:38;9.80;81.80
52245;DHT22;55759;51.586;-1.758;2023-05-15T03:47:03;9.70;81.90
52245;DHT22;55759;51.586;-1.758;2023-05-15T03:49:29;9.60;82.20
52245;DHT22;55759;51.586;-1.758;2023-05-15T03:51:55;9.50;82.30
52245;DHT22;55759;51.586;-1.758;2023-05-15T03:54:21;9.50;82.60
52245;DHT22;55759;51.586;-1.758;2023-05-15T03:56:46;9.50;82.90
52245;DHT22;55759;51.586;-1.758;2023-05-15T03:59:12;9.40;83.10
52245;DHT22;55759;51.586;-1.758;2023-05-15T04:01:38;9.40;83.40
52245;DHT22;55759;51.586;-1.758;2023-05-15T04:04:03;9.30;83.70
52245;DHT22;55759;51.586;-1.758;2023-05-15T04:06:29;9.30;84.00
52245;DHT22;55759;51.586;-1.758;2023-05-15T04:08:54;9.20;84.10
52245;DHT22;55759;51.586;-1.758;2023-05-15T04:11:20;9.20;84.80
52245;DHT22;55759;51.586;-1.758;2023-05-15T04:13:47;9.10;83.10
52245;DHT22;55759;51.586;-1.758;2023-05-15T04:16:13;9.20;82.50
52245;DHT22;55759;51.586;-1.758;2023-05-15T04:18:38;9.20;82.50
52245;DHT22;55759;51.586;-1.758;2023-05-15T04:21:04;9.20;82.90
52245;DHT22;55759;51.586;-1.758;2023-05-15T04:23:30;9.30;82.60
52245;DHT22;55759;51.586;-1.758;2023-05-15T04:25:55;9.30;82.80
52245;DHT22;55759;51.586;-1.758;2023-05-15T04:28:21;9.30;82.60
52245;DHT22;55759;51.586;-1.758;2023-05-15T04:30:47;9.10;82.30
52245;DHT22;55759;51.586;-1.758;2023-05-15T04:33:12;9.10;82.50
52245;DHT22;55759;51.586;-1.758;2023-05-15T04:35:38;9.10;82.30
52245;DHT22;55759;51.586;-1.758;2023-05-15T04:38:04;9.10;82.40
52245;DHT22;55759;51.586;-1.758;2023-05-15T04:40:30;9.10;82.30
52245;DHT22;55759;51.586;-1.758;2023-05-15T04:42:55;9.10;82.40
52245;DHT22;55759;51.586;-1.758;2023-05-15T04:45:21;9.10;81.50
52245;DHT22;55759;51.586;-1.758;2023-05-15T04:47:48;9.20;82.00
52245;DHT22;55759;51.586;-1.758;2023-05-15T04:50:14;9.30;81.70
52245;DHT22;55759;51.586;-1.758;2023-05-15T04:52:39;9.30;81.20
52245;DHT22;55759;51.586;-1.758;2023-05-15T04:55:05;9.40;81.10
52245;DHT22;55759;51.586;-1.758;2023-05-15T04:57:31;9.50;80.90
52245;DHT22;55759;51.586;-1.758;2023-05-15T04:59:56;9.50;80.60
52245;DHT22;55759;51.586;-1.758;2023-05-15T05:02:22;9.60;80.00
52245;DHT22;55759;51.586;-1.758;2023-05-15T05:04:48;9.60;79.50
52245;DHT22;55759;51.586;-1.758;2023-05-15T05:07:13;9.70;79.50
52245;DHT22;55759;51.586;-1.758;2023-05-15T05:09:39;9.70;78.80
52245;DHT22;55759;51.586;-1.758;2023-05-15T05:12:08;9.70;79.10
52245;DHT22;55759;51.586;-1.758;2023-05-15T05:14:33;9.80;78.50
52245;DHT22;55759;51.586;-1.758;2023-05-15T05:16:59;9.80;78.80
52245;DHT22;55759;51.586;-1.758;2023-05-15T05:19:25;9.80;78.00
52245;DHT22;55759;51.586;-1.758;2023-05-15T05:21:52;9.80;78.60
52245;DHT22;55759;51.586;-1.758;2023-05-15T05:24:18;9.80;78.20
52245;DHT22;55759;51.586;-1.758;2023-05-15T05:26:43;9.80;78.00
52245;DHT22;55759;51.586;-1.758;2023-05-15T05:29:09;9.80;77.60
52245;DHT22;55759;51.586;-1.758;2023-05-15T05:31:35;9.80;77.50
52245;DHT22;55759;51.586;-1.758;2023-05-15T05:34:07;9.80;77.80
52245;DHT22;55759;51.586;-1.758;2023-05-15T05:36:34;9.80;77.80
52245;DHT22;55759;51.586;-1.758;2023-05-15T05:39:01;9.80;77.30
52245;DHT22;55759;51.586;-1.758;2023-05-15T05:41:28;9.80;77.30
52245;DHT22;55759;51.586;-1.758;2023-05-15T05:43:54;9.80;77.00
52245;DHT22;55759;51.586;-1.758;2023-05-15T05:46:19;9.90;77.00
52245;DHT22;55759;51.586;-1.758;2023-05-15T05:48:46;9.90;77.60
52245;DHT22;55759;51.586;-1.758;2023-05-15T05:51:11;9.90;78.00
52245;DHT22;55759;51.586;-1.758;2023-05-15T05:53:37;10.00;77.30
52245;DHT22;55759;51.586;-1.758;2023-05-15T05:56:03;10.00;76.80
52245;DHT22;55759;51.586;-1.758;2023-05-15T05:58:28;10.00;77.10
52245;DHT22;55759;51.586;-1.758;2023-05-15T06:00:54;10.00;76.80
52245;DHT22;55759;51.586;-1.758;2023-05-15T06:03:19;10.00;77.50
52245;DHT22;55759;51.586;-1.758;2023-05-15T06:05:45;10.00;76.70
52245;DHT22;55759;51.586;-1.758;2023-05-15T06:08:11;10.00;76.60
52245;DHT22;55759;51.586;-1.758;2023-05-15T06:10:37;10.00;76.20
52245;DHT22;55759;51.586;-1.758;2023-05-15T06:13:02;10.00;76.10
52245;DHT22;55759;51.586;-1.758;2023-05-15T06:15:28;9.90;76.30
52245;DHT22;55759;51.586;-1.758;2023-05-15T06:17:54;10.00;76.60
52245;DHT22;55759;51.586;-1.758;2023-05-15T06:20:19;10.10;76.10
52245;DHT22;55759;51.586;-1.758;2023-05-15T06:22:46;10.10;76.20
52245;DHT22;55759;51.586;-1.758;2023-05-15T06:25:11;10.10;76.30
52245;DHT22;55759;51.586;-1.758;2023-05-15T06:27:39;10.10;75.90
52245;DHT22;55759;51.586;-1.758;2023-05-15T06:30:05;10.00;76.80
52245;DHT22;55759;51.586;-1.758;2023-05-15T06:32:31;10.00;76.50
52245;DHT22;55759;51.586;-1.758;2023-05-15T06:34:57;10.00;76.50
52245;DHT22;55759;51.586;-1.758;2023-05-15T06:37:23;10.00;76.70
52245;DHT22;55759;51.586;-1.758;2023-05-15T06:39:49;10.00;76.90
52245;DHT22;55759;51.586;-1.758;2023-05-15T06:42:18;10.00;76.40
52245;DHT22;55759;51.586;-1.758;2023-05-15T06:44:43;10.00;76.00
52245;DHT22;55759;51.586;-1.758;2023-05-15T06:47:09;10.10;76.50
52245;DHT22;55759;51.586;-1.758;2023-05-15T06:49:37;10.10;75.60
52245;DHT22;55759;51.586;-1.758;2023-05-15T06:52:03;10.10;75.40
52245;DHT22;55759;51.586;-1.758;2023-05-15T06:54:29;10.20;75.50
52245;DHT22;55759;51.586;-1.758;2023-05-15T06:56:54;10.30;75.90
52245;DHT22;55759;51.586;-1.758;2023-05-15T06:59:20;10.50;75.20
52245;DHT22;55759;51.586;-1.758;2023-05-15T07:01:45;10.50;75.00
52245;DHT22;55759;51.586;-1.758;2023-05-15T07:04:11;10.60;74.20
52245;DHT22;55759;51.586;-1.758;2023-05-15T07:06:37;10.70;73.50
52245;DHT22;55759;51.586;-1.758;2023-05-15T07:09:10;10.80;73.50
52245;DHT22;55759;51.586;-1.758;2023-05-15T07:11:35;11.00;72.20
52245;DHT22;55759;51.586;-1.758;2023-05-15T07:14:03;11.00;70.60
52245;DHT22;55759;51.586;-1.758;2023-05-15T07:16:29;11.00;70.90
52245;DHT22;55759;51.586;-1.758;2023-05-15T07:18:54;11.00;71.20
52245;DHT22;55759;51.586;-1.758;2023-05-15T07:21:20;11.00;69.10
52245;DHT22;55759;51.586;-1.758;2023-05-15T07:23:45;11.10;69.80
52245;DHT22;55759;51.586;-1.758;2023-05-15T07:26:12;11.10;70.60
52245;DHT22;55759;51.586;-1.758;2023-05-15T07:28:38;11.30;70.90
52245;DHT22;55759;51.586;-1.758;2023-05-15T07:31:03;11.30;70.70
52245;DHT22;55759;51.586;-1.758;2023-05-15T07:33:29;11.40;69.70
52245;DHT22;55759;51.586;-1.758;2023-05-15T07:35:55;11.40;68.90
52245;DHT22;55759;51.586;-1.758;2023-05-15T07:38:21;11.60;69.00
52245;DHT22;55759;51.586;-1.758;2023-05-15T07:40:46;11.70;69.80
52245;DHT22;55759;51.586;-1.758;2023-05-15T07:43:12;11.80;70.10
52245;DHT22;55759;51.586;-1.758;2023-05-15T07:45:46;11.80;67.60
52245;DHT22;55759;51.586;-1.758;2023-05-15T07:48:19;11.80;67.50
52245;DHT22;55759;51.586;-1.758;2023-05-15T07:50:45;11.80;66.20
52245;DHT22;55759;51.586;-1.758;2023-05-15T07:53:11;11.90;67.80
52245;DHT22;55759;51.586;-1.758;2023-05-15T07:55:37;12.00;66.80
52245;DHT22;55759;51.586;-1.758;2023-05-15T07:58:02;12.10;66.60
52245;DHT22;55759;51.586;-1.758;2023-05-15T08:00:28;12.20;64.40
52245;DHT22;55759;51.586;-1.758;2023-05-15T08:02:54;12.40;64.70
52245;DHT22;55759;51.586;-1.758;2023-05-15T08:05:19;12.40;63.80
52245;DHT22;55759;51.586;-1.758;2023-05-15T08:07:45;12.40;61.80
52245;DHT22;55759;51.586;-1.758;2023-05-15T08:10:10;12.40;62.50
52245;DHT22;55759;51.586;-1.758;2023-05-15T08:12:36;12.40;61.80
52245;DHT22;55759;51.586;-1.758;2023-05-15T08:15:02;12.40;62.30
52245;DHT22;55759;51.586;-1.758;2023-05-15T08:17:27;12.30;61.40
52245;DHT22;55759;51.586;-1.758;2023-05-15T08:19:54;12.20;61.00
52245;DHT22;55759;51.586;-1.758;2023-05-15T08:22:19;12.20;61.30
52245;DHT22;55759;51.586;-1.758;2023-05-15T08:24:45;12.20;62.50
52245;DHT22;55759;51.586;-1.758;2023-05-15T08:27:10;12.20;61.90
52245;DHT22;55759;51.586;-1.758;2023-05-15T08:29:36;12.30;61.10
52245;DHT22;55759;51.586;-1.758;2023-05-15T08:32:02;12.50;61.20
52245;DHT22;55759;51.586;-1.758;2023-05-15T08:34:28;12.70;59.10
52245;DHT22;55759;51.586;-1.758;2023-05-15T08:36:54;13.00;61.00
52245;DHT22;55759;51.586;-1.758;2023-05-15T08:39:21;13.30;59.80
52245;DHT22;55759;51.586;-1.758;2023-05-15T08:41:47;13.60;60.20
52245;DHT22;55759;51.586;-1.758;2023-05-15T08:44:14;13.90;58.50
52245;DHT22;55759;51.586;-1.758;2023-05-15T08:46:40;13.90;56.10
52245;DHT22;55759;51.586;-1.758;2023-05-15T08:49:09;13.90;55.90
52245;DHT22;55759;51.586;-1.758;2023-05-15T08:51:36;13.70;54.50
52245;DHT22;55759;51.586;-1.758;2023-05-15T08:54:02;13.60;55.50
52245;DHT22;55759;51.586;-1.758;2023-05-15T08:56:28;13.50;56.80
52245;DHT22;55759;51.586;-1.758;2023-05-15T08:58:54;13.50;58.00
52245;DHT22;55759;51.586;-1.758;2023-05-15T09:01:19;13.60;57.10
52245;DHT22;55759;51.586;-1.758;2023-05-15T09:03:45;13.60;55.80
52245;DHT22;55759;51.586;-1.758;2023-05-15T09:06:11;13.70;56.80
52245;DHT22;55759;51.586;-1.758;2023-05-15T09:08:40;13.80;56.80
52245;DHT22;55759;51.586;-1.758;2023-05-15T09:11:06;14.10;56.10
52245;DHT22;55759;51.586;-1.758;2023-05-15T09:13:32;14.50;54.40
52245;DHT22;55759;51.586;-1.758;2023-05-15T09:15:58;14.40;55.60
52245;DHT22;55759;51.586;-1.758;2023-05-15T09:18:24;14.30;54.90
52245;DHT22;55759;51.586;-1.758;2023-05-15T09:20:50;14.40;55.40
52245;DHT22;55759;51.586;-1.758;2023-05-15T09:23:26;14.30;52.90
52245;DHT22;55759;51.586;-1.758;2023-05-15T09:25:52;14.20;53.00
52245;DHT22;55759;51.586;-1.758;2023-05-15T09:31:02;14.20;53.10
52245;DHT22;55759;51.586;-1.758;2023-05-15T09:33:32;14.30;52.30
52245;DHT22;55759;51.586;-1.758;2023-05-15T09:35:58;14.40;53.50
52245;DHT22;55759;51.586;-1.758;2023-05-15T09:38:24;14.40;56.10
52245;DHT22;55759;51.586;-1.758;2023-05-15T09:40:49;14.50;52.80
52245;DHT22;55759;51.586;-1.758;2023-05-15T09:43:16;14.60;54.20
52245;DHT22;55759;51.586;-1.758;2023-05-15T09:45:41;14.70;53.40
52245;DHT22;55759;51.586;-1.758;2023-05-15T09:48:07;14.80;53.30
52245;DHT22;55759;51.586;-1.758;2023-05-15T09:50:36;14.90;52.40
52245;DHT22;55759;51.586;-1.758;2023-05-15T09:53:02;15.00;50.80
52245;DHT22;55759;51.586;-1.758;2023-05-15T09:55:32;15.20;50.40
52245;DHT22;55759;51.586;-1.758;2023-05-15T09:58:05;15.50;51.00
52245;DHT22;55759;51.586;-1.758;2023-05-15T10:00:31;16.10;50.00
52245;DHT22;55759;51.586;-1.758;2023-05-15T10:02:57;16.60;47.80
52245;DHT22;55759;51.586;-1.758;2023-05-15T10:05:47;17.00;47.20
52245;DHT22;55759;51.586;-1.758;2023-05-15T10:08:13;17.50;45.70
52245;DHT22;55759;51.586;-1.758;2023-05-15T10:10:42;17.40;45.10
52245;DHT22;55759;51.586;-1.758;2023-05-15T10:13:13;17.00;44.90
52245;DHT22;55759;51.586;-1.758;2023-05-15T10:15:42;16.60;46.60
52245;DHT22;55759;51.586;-1.758;2023-05-15T10:18:08;16.40;46.70
52245;DHT22;55759;51.586;-1.758;2023-05-15T10:20:34;16.40;47.40
52245;DHT22;55759;51.586;-1.758;2023-05-15T10:23:00;16.60;47.80
52245;DHT22;55759;51.586;-1.758;2023-05-15T10:28:11;16.40;47.40
52245;DHT22;55759;51.586;-1.758;2023-05-15T10:30:38;16.20;48.10
52245;DHT22;55759;51.586;-1.758;2023-05-15T10:33:05;16.30;48.40
52245;DHT22;55759;51.586;-1.758;2023-05-15T10:35:31;16.60;46.90
52245;DHT22;55759;51.586;-1.758;2023-05-15T10:37:58;17.00;48.20
52245;DHT22;55759;51.586;-1.758;2023-05-15T10:40:25;17.10;47.00
52245;DHT22;55759;51.586;-1.758;2023-05-15T10:42:52;17.40;45.30
52245;DHT22;55759;51.586;-1.758;2023-05-15T10:45:19;18.00;44.70
52245;DHT22;55759;51.586;-1.758;2023-05-15T10:47:44;19.10;43.00
52245;DHT22;55759;51.586;-1.758;2023-05-15T10:50:11;19.90;38.60
52245;DHT22;55759;51.586;-1.758;2023-05-15T10:52:38;20.90;36.40
52245;DHT22;55759;51.586;-1.758;2023-05-15T10:55:22;21.60;36.60
52245;DHT22;55759;51.586;-1.758;2023-05-15T10:57:47;21.60;34.30
52245;DHT22;55759;51.586;-1.758;2023-05-15T11:02:48;22.60;34.00
52245;DHT22;55759;51.586;-1.758;2023-05-15T11:05:14;22.40;35.30
52245;DHT22;55759;51.586;-1.758;2023-05-15T11:07:39;22.70;35.60
52245;DHT22;55759;51.586;-1.758;2023-05-15T11:13:00;21.90;36.80
52245;DHT22;55759;51.586;-1.758;2023-05-15T11:15:26;22.70;34.60
52245;DHT22;55759;51.586;-1.758;2023-05-15T11:18:05;23.20;35.00
52245;DHT22;55759;51.586;-1.758;2023-05-15T11:20:32;23.10;34.20
52245;DHT22;55759;51.586;-1.758;2023-05-15T11:22:58;23.60;33.70
52245;DHT22;55759;51.586;-1.758;2023-05-15T11:25:33;24.50;31.60
52245;DHT22;55759;51.586;-1.758;2023-05-15T11:27:59;26.00;31.50
52245;DHT22;55759;51.586;-1.758;2023-05-15T11:30:38;25.60;29.50
52245;DHT22;55759;51.586;-1.758;2023-05-15T11:33:05;23.30;33.10
52245;DHT22;55759;51.586;-1.758;2023-05-15T11:35:33;22.60;35.00
52245;DHT22;55759;51.586;-1.758;2023-05-15T11:43:16;28.50;26.20
52245;DHT22;55759;51.586;-1.758;2023-05-15T11:45:42;29.20;26.50
52245;DHT22;55759;51.586;-1.758;2023-05-15T11:48:12;29.90;25.30
52245;DHT22;55759;51.586;-1.758;2023-05-15T11:50:39;29.60;24.90
52245;DHT22;55759;51.586;-1.758;2023-05-15T11:53:06;30.50;24.30
52245;DHT22;55759;51.586;-1.758;2023-05-15T11:55:32;30.40;22.80
52245;DHT22;55759;51.586;-1.758;2023-05-15T11:57:58;29.30;25.30
52245;DHT22;55759;51.586;-1.758;2023-05-15T12:00:24;30.20;24.10
52245;DHT22;55759;51.586;-1.758;2023-05-15T12:02:50;31.20;23.90
52245;DHT22;55759;51.586;-1.758;2023-05-15T12:05:15;29.90;23.00
52245;DHT22;55759;51.586;-1.758;2023-05-15T12:07:41;27.00;27.00
52245;DHT22;55759;51.586;-1.758;2023-05-15T12:10:11;24.60;31.50
52245;DHT22;55759;51.586;-1.758;2023-05-15T12:12:40;23.00;31.90
52245;DHT22;55759;51.586;-1.758;2023-05-15T12:15:09;22.80;32.70
52245;DHT22;55759;51.586;-1.758;2023-05-15T12:17:36;22.60;33.60
52245;DHT22;55759;51.586;-1.758;2023-05-15T12:20:01;23.60;32.70
52245;DHT22;55759;51.586;-1.758;2023-05-15T12:22:34;25.20;31.50
52245;DHT22;55759;51.586;-1.758;2023-05-15T12:25:03;25.10;32.10
52245;DHT22;55759;51.586;-1.758;2023-05-15T12:27:29;24.00;31.90
52245;DHT22;55759;51.586;-1.758;2023-05-15T12:29:54;22.60;33.30
52245;DHT22;55759;51.586;-1.758;2023-05-15T12:32:20;21.50;36.50
52245;DHT22;55759;51.586;-1.758;2023-05-15T12:34:46;21.70;37.20
52245;DHT22;55759;51.586;-1.758;2023-05-15T12:37:12;24.40;32.70
52245;DHT22;55759;51.586;-1.758;2023-05-15T12:39:52;27.00;28.10
52245;DHT22;55759;51.586;-1.758;2023-05-15T12:42:17;28.80;27.60
52245;DHT22;55759;51.586;-1.758;2023-05-15T12:44:43;30.60;24.10
52245;DHT22;55759;51.586;-1.758;2023-05-15T12:47:08;30.60;24.90
52245;DHT22;55759;51.586;-1.758;2023-05-15T12:49:34;29.30;25.00
52245;DHT22;55759;51.586;-1.758;2023-05-15T12:52:06;27.10;26.70
52245;DHT22;55759;51.586;-1.758;2023-05-15T12:54:37;25.20;28.20
52245;DHT22;55759;51.586;-1.758;2023-05-15T12:57:03;24.50;31.70
52245;DHT22;55759;51.586;-1.758;2023-05-15T12:59:28;26.80;31.40
52245;DHT22;55759;51.586;-1.758;2023-05-15T13:01:54;29.50;29.50
52245;DHT22;55759;51.586;-1.758;2023-05-15T13:04:19;32.00;27.50
52245;DHT22;55759;51.586;-1.758;2023-05-15T13:06:45;32.40;23.90
52245;DHT22;55759;51.586;-1.758;2023-05-15T13:09:11;29.80;25.60
52245;DHT22;55759;51.586;-1.758;2023-05-15T13:11:37;26.90;27.20
52245;DHT22;55759;51.586;-1.758;2023-05-15T13:14:07;27.10;28.20
52245;DHT22;55759;51.586;-1.758;2023-05-15T13:16:35;29.10;25.90
52245;DHT22;55759;51.586;-1.758;2023-05-15T13:19:00;30.40;25.90
52245;DHT22;55759;51.586;-1.758;2023-05-15T13:21:26;28.70;25.70
52245;DHT22;55759;51.586;-1.758;2023-05-15T13:23:52;29.60;27.60
52245;DHT22;55759;51.586;-1.758;2023-05-15T13:26:18;31.60;25.10
52245;DHT22;55759;51.586;-1.758;2023-05-15T13:28:43;32.90;24.20
52245;DHT22;55759;51.586;-1.758;2023-05-15T13:31:09;34.00;24.80
52245;DHT22;55759;51.586;-1.758;2023-05-15T13:33:34;34.30;20.40
52245;DHT22;55759;51.586;-1.758;2023-05-15T13:36:00;32.60;24.30
52245;DHT22;55759;51.586;-1.758;2023-05-15T13:38:26;33.10;21.90
52245;DHT22;55759;51.586;-1.758;2023-05-15T13:40:51;34.10;20.60
52245;DHT22;55759;51.586;-1.758;2023-05-15T13:43:17;34.80;19.50
52245;DHT22;55759;51.586;-1.758;2023-05-15T13:45:42;33.80;23.90
52245;DHT22;55759;51.586;-1.758;2023-05-15T13:48:08;33.70;24.00
52245;DHT22;55759;51.586;-1.758;2023-05-15T13:50:33;34.60;22.80
52245;DHT22;55759;51.586;-1.758;2023-05-15T13:52:59;35.60;21.70
52245;DHT22;55759;51.586;-1.758;2023-05-15T13:55:25;36.30;18.30
52245;DHT22;55759;51.586;-1.758;2023-05-15T13:57:50;36.40;20.50
52245;DHT22;55759;51.586;-1.758;2023-05-15T14:00:17;36.40;19.30
52245;DHT22;55759;51.586;-1.758;2023-05-15T14:02:43;36.60;20.80
52245;DHT22;55759;51.586;-1.758;2023-05-15T14:05:10;36.90;17.00
52245;DHT22;55759;51.586;-1.758;2023-05-15T14:07:35;37.20;19.00
52245;DHT22;55759;51.586;-1.758;2023-05-15T14:10:01;37.50;17.40
52245;DHT22;55759;51.586;-1.758;2023-05-15T14:12:27;35.10;19.90
52245;DHT22;55759;51.586;-1.758;2023-05-15T14:14:53;32.10;22.90
52245;DHT22;55759;51.586;-1.758;2023-05-15T14:17:20;29.80;25.10
52245;DHT22;55759;51.586;-1.758;2023-05-15T14:19:46;28.30;30.50
52245;DHT22;55759;51.586;-1.758;2023-05-15T14:22:11;28.80;27.60
52245;DHT22;55759;51.586;-1.758;2023-05-15T14:24:37;29.60;23.20
52245;DHT22;55759;51.586;-1.758;2023-05-15T14:27:03;31.00;24.60
52245;DHT22;55759;51.586;-1.758;2023-05-15T14:29:28;31.60;28.20
52245;DHT22;55759;51.586;-1.758;2023-05-15T14:31:54;31.50;22.80
52245;DHT22;55759;51.586;-1.758;2023-05-15T14:34:20;32.30;24.00
52245;DHT22;55759;51.586;-1.758;2023-05-15T14:36:47;33.40;20.90
52245;DHT22;55759;51.586;-1.758;2023-05-15T14:39:13;34.20;20.90
52245;DHT22;55759;51.586;-1.758;2023-05-15T14:41:39;35.10;19.00
52245;DHT22;55759;51.586;-1.758;2023-05-15T14:44:04;35.40;20.80
52245;DHT22;55759;51.586;-1.758;2023-05-15T14:46:30;35.50;18.50
52245;DHT22;55759;51.586;-1.758;2023-05-15T14:48:55;35.50;23.80
52245;DHT22;55759;51.586;-1.758;2023-05-15T14:51:21;35.80;20.20
52245;DHT22;55759;51.586;-1.758;2023-05-15T14:53:47;36.10;18.20
52245;DHT22;55759;51.586;-1.758;2023-05-15T14:56:12;36.10;20.50
52245;DHT22;55759;51.586;-1.758;2023-05-15T14:58:38;36.50;22.90
52245;DHT22;55759;51.586;-1.758;2023-05-15T15:01:03;36.90;19.10
52245;DHT22;55759;51.586;-1.758;2023-05-15T15:03:29;37.20;17.20
52245;DHT22;55759;51.586;-1.758;2023-05-15T15:05:55;36.10;19.60
52245;DHT22;55759;51.586;-1.758;2023-05-15T15:08:20;36.00;23.90
52245;DHT22;55759;51.586;-1.758;2023-05-15T15:10:46;36.10;21.40
52245;DHT22;55759;51.586;-1.758;2023-05-15T15:13:12;36.70;20.60
52245;DHT22;55759;51.586;-1.758;2023-05-15T15:15:38;35.90;21.60
52245;DHT22;55759;51.586;-1.758;2023-05-15T15:18:04;33.10;25.20
52245;DHT22;55759;51.586;-1.758;2023-05-15T15:20:30;30.60;22.60
52245;DHT22;55759;51.586;-1.758;2023-05-15T15:22:55;28.10;30.60
52245;DHT22;55759;51.586;-1.758;2023-05-15T15:25:21;26.10;33.00
52245;DHT22;55759;51.586;-1.758;2023-05-15T15:27:47;24.70;31.60
52245;DHT22;55759;51.586;-1.758;2023-05-15T15:30:13;24.10;31.30
52245;DHT22;55759;51.586;-1.758;2023-05-15T15:32:39;23.70;30.30
52245;DHT22;55759;51.586;-1.758;2023-05-15T15:35:05;23.00;32.90
52245;DHT22;55759;51.586;-1.758;2023-05-15T15:37:31;22.30;35.30
52245;DHT22;55759;51.586;-1.758;2023-05-15T15:39:58;24.10;31.30
52245;DHT22;55759;51.586;-1.758;2023-05-15T15:42:25;26.70;39.50
52245;DHT22;55759;51.586;-1.758;2023-05-15T15:44:55;29.40;30.90